sensor_id;sensor_type;location;lat;lon;timestamp;P1;durP1;ratioP1;P2;durP2;ratioP2
25982;SDS011;13773;48.868;10.730;2022-12-18T00:00:29;90.87;;;40.47;;
25982;SDS011;13773;48.868;10.730;2022-12-18T00:02:55;89.80;;;41.70;;
25982;SDS011;13773;48.868;10.730;2022-12-18T00:05:20;93.63;;;41.83;;
25982;SDS011;13773;48.868;10.730;2022-12-18T00:07:46;82.30;;;38.10;;
25982;SDS011;13773;48.868;10.730;2022-12-18T00:10:12;95.47;;;40.23;;
25982;SDS011;13773;48.868;10.730;2022-12-18T00:12:38;94.30;;;39.53;;
25982;SDS011;13773;48.868;10.730;2022-12-18T00:15:03;96.77;;;41.37;;
25982;SDS011;13773;48.868;10.730;2022-12-18T00:17:29;95.80;;;39.43;;
25982;SDS011;13773;48.868;10.730;2022-12-18T00:19:55;95.00;;;40.30;;
25982;SDS011;13773;48.868;10.730;2022-12-18T00:22:20;98.23;;;40.20;;
25982;SDS011;13773;48.868;10.730;2022-12-18T00:24:46;92.70;;;39.20;;
25982;SDS011;13773;48.868;10.730;2022-12-18T00:27:12;97.20;;;39.93;;
25982;SDS011;13773;48.868;10.730;2022-12-18T00:29:37;96.20;;;39.50;;
25982;SDS011;13773;48.868;10.730;2022-12-18T00:32:04;94.57;;;39.90;;
25982;SDS011;13773;48.868;10.730;2022-12-18T00:34:30;100.20;;;41.87;;
25982;SDS011;13773;48.868;10.730;2022-12-18T00:36:55;99.67;;;40.67;;
25982;SDS011;13773;48.868;10.730;2022-12-18T00:39:21;98.50;;;40.00;;
25982;SDS011;13773;48.868;10.730;2022-12-18T00:41:47;89.87;;;40.00;;
25982;SDS011;13773;48.868;10.730;2022-12-18T00:44:31;95.23;;;40.53;;
25982;SDS011;13773;48.868;10.730;2022-12-18T00:46:56;90.47;;;37.97;;
25982;SDS011;13773;48.868;10.730;2022-12-18T00:49:22;89.43;;;36.97;;
25982;SDS011;13773;48.868;10.730;2022-12-18T00:51:48;91.87;;;37.13;;
25982;SDS011;13773;48.868;10.730;2022-12-18T00:54:14;84.33;;;37.17;;
25982;SDS011;13773;48.868;10.730;2022-12-18T00:56:40;90.67;;;35.47;;
25982;SDS011;13773;48.868;10.730;2022-12-18T00:59:06;85.73;;;37.23;;
25982;SDS011;13773;48.868;10.730;2022-12-18T01:01:32;90.33;;;37.57;;
25982;SDS011;13773;48.868;10.730;2022-12-18T01:03:59;78.83;;;34.20;;
25982;SDS011;13773;48.868;10.730;2022-12-18T01:06:26;92.43;;;37.23;;
25982;SDS011;13773;48.868;10.730;2022-12-18T01:08:52;86.27;;;36.23;;
25982;SDS011;13773;48.868;10.730;2022-12-18T01:11:18;87.53;;;36.13;;
25982;SDS011;13773;48.868;10.730;2022-12-18T01:13:45;90.03;;;37.47;;
25982;SDS011;13773;48.868;10.730;2022-12-18T01:16:11;85.57;;;35.60;;
25982;SDS011;13773;48.868;10.730;2022-12-18T01:18:38;84.03;;;36.03;;
25982;SDS011;13773;48.868;10.730;2022-12-18T01:21:10;91.53;;;39.40;;
25982;SDS011;13773;48.868;10.730;2022-12-18T01:23:37;90.83;;;34.90;;
25982;SDS011;13773;48.868;10.730;2022-12-18T01:26:07;80.20;;;34.93;;
25982;SDS011;13773;48.868;10.730;2022-12-18T01:28:35;81.13;;;33.90;;
25982;SDS011;13773;48.868;10.730;2022-12-18T01:31:23;75.90;;;29.13;;
25982;SDS011;13773;48.868;10.730;2022-12-18T01:33:50;82.30;;;33.40;;
25982;SDS011;13773;48.868;10.730;2022-12-18T01:36:17;93.87;;;34.53;;
25982;SDS011;13773;48.868;10.730;2022-12-18T01:38:45;80.13;;;34.33;;
25982;SDS011;13773;48.868;10.730;2022-12-18T01:41:11;81.50;;;35.03;;
25982;SDS011;13773;48.868;10.730;2022-12-18T01:43:41;75.17;;;32.87;;
25982;SDS011;13773;48.868;10.730;2022-12-18T01:46:06;92.03;;;35.33;;
25982;SDS011;13773;48.868;10.730;2022-12-18T01:48:32;77.93;;;33.40;;
25982;SDS011;13773;48.868;10.730;2022-12-18T01:50:58;82.73;;;33.30;;
25982;SDS011;13773;48.868;10.730;2022-12-18T01:53:24;77.00;;;33.17;;
25982;SDS011;13773;48.868;10.730;2022-12-18T01:55:56;75.77;;;32.03;;
25982;SDS011;13773;48.868;10.730;2022-12-18T02:00:57;67.50;;;29.80;;
25982;SDS011;13773;48.868;10.730;2022-12-18T02:03:26;68.47;;;29.33;;
25982;SDS011;13773;48.868;10.730;2022-12-18T02:11:50;66.37;;;28.73;;
25982;SDS011;13773;48.868;10.730;2022-12-18T02:17:03;62.10;;;26.13;;
25982;SDS011;13773;48.868;10.730;2022-12-18T02:27:51;64.37;;;27.33;;
25982;SDS011;13773;48.868;10.730;2022-12-18T02:30:19;69.13;;;28.60;;
25982;SDS011;13773;48.868;10.730;2022-12-18T02:32:47;58.83;;;26.77;;
25982;SDS011;13773;48.868;10.730;2022-12-18T02:35:19;62.17;;;27.00;;
25982;SDS011;13773;48.868;10.730;2022-12-18T02:37:49;62.80;;;26.97;;
25982;SDS011;13773;48.868;10.730;2022-12-18T02:40:15;56.37;;;25.77;;
25982;SDS011;13773;48.868;10.730;2022-12-18T02:42:43;65.50;;;29.87;;
25982;SDS011;13773;48.868;10.730;2022-12-18T02:45:09;65.60;;;27.20;;
25982;SDS011;13773;48.868;10.730;2022-12-18T02:47:39;65.23;;;26.50;;
25982;SDS011;13773;48.868;10.730;2022-12-18T02:53:36;63.00;;;26.03;;
25982;SDS011;13773;48.868;10.730;2022-12-18T02:56:14;71.97;;;26.13;;
25982;SDS011;13773;48.868;10.730;2022-12-18T03:08:54;61.33;;;23.77;;
25982;SDS011;13773;48.868;10.730;2022-12-18T03:11:23;64.60;;;26.30;;
25982;SDS011;13773;48.868;10.730;2022-12-18T03:14:10;66.70;;;24.37;;
25982;SDS011;13773;48.868;10.730;2022-12-18T03:16:40;52.30;;;23.20;;
25982;SDS011;13773;48.868;10.730;2022-12-18T03:19:08;61.90;;;24.10;;
25982;SDS011;13773;48.868;10.730;2022-12-18T03:21:40;42.53;;;16.40;;
25982;SDS011;13773;48.868;10.730;2022-12-18T03:24:08;66.70;;;25.57;;
25982;SDS011;13773;48.868;10.730;2022-12-18T03:26:36;68.73;;;25.07;;
25982;SDS011;13773;48.868;10.730;2022-12-18T03:29:09;60.40;;;25.40;;
25982;SDS011;13773;48.868;10.730;2022-12-18T03:31:49;64.93;;;26.17;;
25982;SDS011;13773;48.868;10.730;2022-12-18T03:34:21;71.70;;;22.30;;
25982;SDS011;13773;48.868;10.730;2022-12-18T03:36:50;72.70;;;25.70;;
25982;SDS011;13773;48.868;10.730;2022-12-18T03:39:15;70.23;;;26.90;;
25982;SDS011;13773;48.868;10.730;2022-12-18T03:42:02;76.73;;;26.07;;
25982;SDS011;13773;48.868;10.730;2022-12-18T03:44:31;70.63;;;27.70;;
25982;SDS011;13773;48.868;10.730;2022-12-18T03:47:15;68.60;;;26.87;;
25982;SDS011;13773;48.868;10.730;2022-12-18T03:49:55;78.43;;;26.93;;
25982;SDS011;13773;48.868;10.730;2022-12-18T03:55:03;71.73;;;26.93;;
25982;SDS011;13773;48.868;10.730;2022-12-18T03:57:32;80.33;;;26.80;;
25982;SDS011;13773;48.868;10.730;2022-12-18T04:00:08;79.87;;;27.97;;
25982;SDS011;13773;48.868;10.730;2022-12-18T04:02:37;72.17;;;27.47;;
25982;SDS011;13773;48.868;10.730;2022-12-18T04:05:05;82.10;;;29.07;;
25982;SDS011;13773;48.868;10.730;2022-12-18T04:07:33;72.80;;;28.17;;
25982;SDS011;13773;48.868;10.730;2022-12-18T04:10:00;72.07;;;27.63;;
25982;SDS011;13773;48.868;10.730;2022-12-18T04:12:28;72.53;;;28.03;;
25982;SDS011;13773;48.868;10.730;2022-12-18T04:14:55;83.83;;;29.37;;
25982;SDS011;13773;48.868;10.730;2022-12-18T04:17:21;80.97;;;27.53;;
25982;SDS011;13773;48.868;10.730;2022-12-18T04:19:47;86.20;;;28.17;;
25982;SDS011;13773;48.868;10.730;2022-12-18T04:22:13;87.27;;;29.17;;
25982;SDS011;13773;48.868;10.730;2022-12-18T04:24:39;83.73;;;29.13;;
25982;SDS011;13773;48.868;10.730;2022-12-18T04:27:05;69.30;;;26.10;;
25982;SDS011;13773;48.868;10.730;2022-12-18T04:29:31;82.33;;;28.20;;
25982;SDS011;13773;48.868;10.730;2022-12-18T04:31:57;70.90;;;27.93;;
25982;SDS011;13773;48.868;10.730;2022-12-18T04:34:22;78.17;;;29.07;;
25982;SDS011;13773;48.868;10.730;2022-12-18T04:36:48;87.20;;;30.50;;
25982;SDS011;13773;48.868;10.730;2022-12-18T04:39:14;79.93;;;29.03;;
25982;SDS011;13773;48.868;10.730;2022-12-18T04:41:40;88.13;;;30.43;;
25982;SDS011;13773;48.868;10.730;2022-12-18T04:44:06;81.40;;;29.57;;
25982;SDS011;13773;48.868;10.730;2022-12-18T04:46:32;75.70;;;27.70;;
25982;SDS011;13773;48.868;10.730;2022-12-18T04:48:57;86.83;;;29.77;;
25982;SDS011;13773;48.868;10.730;2022-12-18T04:51:23;74.57;;;28.93;;
25982;SDS011;13773;48.868;10.730;2022-12-18T04:53:49;85.80;;;28.93;;
25982;SDS011;13773;48.868;10.730;2022-12-18T04:56:15;91.90;;;30.00;;
25982;SDS011;13773;48.868;10.730;2022-12-18T04:58:41;90.33;;;29.30;;
25982;SDS011;13773;48.868;10.730;2022-12-18T05:01:09;85.43;;;26.57;;
25982;SDS011;13773;48.868;10.730;2022-12-18T05:03:37;83.07;;;28.80;;
25982;SDS011;13773;48.868;10.730;2022-12-18T05:06:03;86.27;;;29.37;;
25982;SDS011;13773;48.868;10.730;2022-12-18T05:08:30;79.00;;;28.60;;
25982;SDS011;13773;48.868;10.730;2022-12-18T05:10:59;81.87;;;28.73;;
25982;SDS011;13773;48.868;10.730;2022-12-18T05:13:26;49.10;;;19.83;;
25982;SDS011;13773;48.868;10.730;2022-12-18T05:15:53;84.07;;;29.57;;
25982;SDS011;13773;48.868;10.730;2022-12-18T05:18:20;79.90;;;29.47;;
25982;SDS011;13773;48.868;10.730;2022-12-18T05:20:46;77.40;;;29.63;;
25982;SDS011;13773;48.868;10.730;2022-12-18T05:23:12;87.47;;;28.90;;
25982;SDS011;13773;48.868;10.730;2022-12-18T05:25:38;84.07;;;29.97;;
25982;SDS011;13773;48.868;10.730;2022-12-18T05:28:03;73.53;;;27.80;;
25982;SDS011;13773;48.868;10.730;2022-12-18T05:30:29;82.13;;;29.23;;
25982;SDS011;13773;48.868;10.730;2022-12-18T05:32:55;75.57;;;26.20;;
25982;SDS011;13773;48.868;10.730;2022-12-18T05:35:20;73.30;;;28.97;;
25982;SDS011;13773;48.868;10.730;2022-12-18T05:37:46;80.47;;;28.97;;
25982;SDS011;13773;48.868;10.730;2022-12-18T05:40:12;73.77;;;25.70;;
25982;SDS011;13773;48.868;10.730;2022-12-18T05:42:38;81.27;;;28.23;;
25982;SDS011;13773;48.868;10.730;2022-12-18T05:45:04;78.10;;;27.00;;
25982;SDS011;13773;48.868;10.730;2022-12-18T05:47:30;77.37;;;27.77;;
25982;SDS011;13773;48.868;10.730;2022-12-18T05:49:56;66.17;;;25.63;;
25982;SDS011;13773;48.868;10.730;2022-12-18T05:52:22;69.13;;;26.23;;
25982;SDS011;13773;48.868;10.730;2022-12-18T05:54:47;57.53;;;23.33;;
25982;SDS011;13773;48.868;10.730;2022-12-18T05:57:13;56.03;;;22.27;;
25982;SDS011;13773;48.868;10.730;2022-12-18T05:59:39;57.63;;;21.77;;
25982;SDS011;13773;48.868;10.730;2022-12-18T06:02:04;60.33;;;21.90;;
25982;SDS011;13773;48.868;10.730;2022-12-18T06:04:30;58.27;;;20.93;;
25982;SDS011;13773;48.868;10.730;2022-12-18T06:06:56;59.53;;;21.70;;
25982;SDS011;13773;48.868;10.730;2022-12-18T06:09:22;55.77;;;22.07;;
25982;SDS011;13773;48.868;10.730;2022-12-18T06:11:48;48.47;;;19.63;;
25982;SDS011;13773;48.868;10.730;2022-12-18T06:14:16;55.80;;;21.80;;
25982;SDS011;13773;48.868;10.730;2022-12-18T06:16:42;58.40;;;20.50;;
25982;SDS011;13773;48.868;10.730;2022-12-18T06:19:07;58.97;;;21.73;;
25982;SDS011;13773;48.868;10.730;2022-12-18T06:21:38;56.70;;;20.13;;
25982;SDS011;13773;48.868;10.730;2022-12-18T06:24:04;56.67;;;22.00;;
25982;SDS011;13773;48.868;10.730;2022-12-18T06:26:30;60.13;;;21.37;;
25982;SDS011;13773;48.868;10.730;2022-12-18T06:28:55;55.03;;;21.40;;
25982;SDS011;13773;48.868;10.730;2022-12-18T06:31:21;59.87;;;21.33;;
25982;SDS011;13773;48.868;10.730;2022-12-18T06:33:47;55.77;;;20.97;;
25982;SDS011;13773;48.868;10.730;2022-12-18T06:36:13;51.33;;;20.57;;
25982;SDS011;13773;48.868;10.730;2022-12-18T06:38:40;55.17;;;21.97;;
25982;SDS011;13773;48.868;10.730;2022-12-18T06:41:08;55.47;;;21.80;;
25982;SDS011;13773;48.868;10.730;2022-12-18T06:43:35;61.17;;;22.63;;
25982;SDS011;13773;48.868;10.730;2022-12-18T06:46:01;56.10;;;19.47;;
25982;SDS011;13773;48.868;10.730;2022-12-18T06:48:28;53.73;;;21.53;;
25982;SDS011;13773;48.868;10.730;2022-12-18T06:50:54;61.23;;;24.20;;
25982;SDS011;13773;48.868;10.730;2022-12-18T06:53:20;57.20;;;21.23;;
25982;SDS011;13773;48.868;10.730;2022-12-18T06:55:46;57.87;;;22.50;;
25982;SDS011;13773;48.868;10.730;2022-12-18T06:58:11;61.17;;;21.70;;
25982;SDS011;13773;48.868;10.730;2022-12-18T07:00:37;67.97;;;26.37;;
25982;SDS011;13773;48.868;10.730;2022-12-18T07:03:03;59.97;;;23.03;;
25982;SDS011;13773;48.868;10.730;2022-12-18T07:05:29;62.23;;;23.60;;
25982;SDS011;13773;48.868;10.730;2022-12-18T07:07:54;58.20;;;23.17;;
25982;SDS011;13773;48.868;10.730;2022-12-18T07:10:20;63.00;;;23.23;;
25982;SDS011;13773;48.868;10.730;2022-12-18T07:12:46;60.87;;;24.53;;
25982;SDS011;13773;48.868;10.730;2022-12-18T07:15:11;58.93;;;23.10;;
25982;SDS011;13773;48.868;10.730;2022-12-18T07:17:37;53.47;;;19.57;;
25982;SDS011;13773;48.868;10.730;2022-12-18T07:20:03;54.93;;;20.17;;
25982;SDS011;13773;48.868;10.730;2022-12-18T07:22:29;53.90;;;20.60;;
25982;SDS011;13773;48.868;10.730;2022-12-18T07:24:54;60.93;;;22.57;;
25982;SDS011;13773;48.868;10.730;2022-12-18T07:27:20;55.70;;;20.33;;
25982;SDS011;13773;48.868;10.730;2022-12-18T07:29:46;50.03;;;20.97;;
25982;SDS011;13773;48.868;10.730;2022-12-18T07:32:12;48.67;;;21.33;;
25982;SDS011;13773;48.868;10.730;2022-12-18T07:34:38;56.77;;;20.50;;
25982;SDS011;13773;48.868;10.730;2022-12-18T07:37:03;61.47;;;22.90;;
25982;SDS011;13773;48.868;10.730;2022-12-18T07:39:29;57.67;;;22.63;;
25982;SDS011;13773;48.868;10.730;2022-12-18T07:41:55;53.97;;;20.87;;
25982;SDS011;13773;48.868;10.730;2022-12-18T07:44:39;54.83;;;21.80;;
25982;SDS011;13773;48.868;10.730;2022-12-18T07:47:05;51.50;;;21.20;;
25982;SDS011;13773;48.868;10.730;2022-12-18T07:49:31;49.47;;;20.83;;
25982;SDS011;13773;48.868;10.730;2022-12-18T07:51:56;46.57;;;18.63;;
25982;SDS011;13773;48.868;10.730;2022-12-18T07:54:23;52.87;;;20.37;;
25982;SDS011;13773;48.868;10.730;2022-12-18T07:56:50;52.97;;;20.47;;
25982;SDS011;13773;48.868;10.730;2022-12-18T07:59:16;52.73;;;21.97;;
25982;SDS011;13773;48.868;10.730;2022-12-18T08:01:43;53.90;;;22.57;;
25982;SDS011;13773;48.868;10.730;2022-12-18T08:04:09;51.20;;;21.37;;
25982;SDS011;13773;48.868;10.730;2022-12-18T08:06:34;48.67;;;20.73;;
25982;SDS011;13773;48.868;10.730;2022-12-18T08:09:00;57.30;;;21.87;;
25982;SDS011;13773;48.868;10.730;2022-12-18T08:11:27;46.20;;;18.57;;
25982;SDS011;13773;48.868;10.730;2022-12-18T08:13:53;49.23;;;20.27;;
25982;SDS011;13773;48.868;10.730;2022-12-18T08:16:20;50.70;;;21.30;;
25982;SDS011;13773;48.868;10.730;2022-12-18T08:18:47;46.93;;;20.77;;
25982;SDS011;13773;48.868;10.730;2022-12-18T08:21:14;48.03;;;20.10;;
25982;SDS011;13773;48.868;10.730;2022-12-18T08:23:42;45.57;;;20.47;;
25982;SDS011;13773;48.868;10.730;2022-12-18T08:26:08;43.67;;;19.77;;
25982;SDS011;13773;48.868;10.730;2022-12-18T08:28:37;47.60;;;21.13;;
25982;SDS011;13773;48.868;10.730;2022-12-18T08:31:04;44.80;;;18.77;;
25982;SDS011;13773;48.868;10.730;2022-12-18T08:33:31;39.33;;;17.30;;
25982;SDS011;13773;48.868;10.730;2022-12-18T08:36:00;43.80;;;20.50;;
25982;SDS011;13773;48.868;10.730;2022-12-18T08:38:27;54.07;;;22.23;;
25982;SDS011;13773;48.868;10.730;2022-12-18T08:40:59;44.60;;;20.10;;
25982;SDS011;13773;48.868;10.730;2022-12-18T08:43:25;47.47;;;20.13;;
25982;SDS011;13773;48.868;10.730;2022-12-18T08:46:10;45.50;;;19.83;;
25982;SDS011;13773;48.868;10.730;2022-12-18T08:48:36;48.50;;;20.27;;
25982;SDS011;13773;48.868;10.730;2022-12-18T08:51:02;44.73;;;18.13;;
25982;SDS011;13773;48.868;10.730;2022-12-18T08:53:28;45.80;;;20.23;;
25982;SDS011;13773;48.868;10.730;2022-12-18T08:55:55;45.60;;;19.30;;
25982;SDS011;13773;48.868;10.730;2022-12-18T08:58:21;45.57;;;19.93;;
25982;SDS011;13773;48.868;10.730;2022-12-18T09:00:47;43.73;;;20.23;;
25982;SDS011;13773;48.868;10.730;2022-12-18T09:03:14;41.90;;;19.33;;
25982;SDS011;13773;48.868;10.730;2022-12-18T09:05:41;42.57;;;19.83;;
25982;SDS011;13773;48.868;10.730;2022-12-18T09:08:06;41.93;;;18.53;;
25982;SDS011;13773;48.868;10.730;2022-12-18T09:10:32;41.93;;;18.57;;
25982;SDS011;13773;48.868;10.730;2022-12-18T09:12:58;43.40;;;18.60;;
25982;SDS011;13773;48.868;10.730;2022-12-18T09:15:24;38.53;;;18.43;;
25982;SDS011;13773;48.868;10.730;2022-12-18T09:17:50;39.63;;;18.07;;
25982;SDS011;13773;48.868;10.730;2022-12-18T09:20:17;34.60;;;17.47;;
25982;SDS011;13773;48.868;10.730;2022-12-18T09:22:43;36.43;;;17.37;;
25982;SDS011;13773;48.868;10.730;2022-12-18T09:25:09;36.83;;;17.40;;
25982;SDS011;13773;48.868;10.730;2022-12-18T09:27:35;37.50;;;18.13;;
25982;SDS011;13773;48.868;10.730;2022-12-18T09:30:01;33.43;;;15.90;;
25982;SDS011;13773;48.868;10.730;2022-12-18T09:32:26;34.80;;;16.43;;
25982;SDS011;13773;48.868;10.730;2022-12-18T09:34:52;35.53;;;17.27;;
25982;SDS011;13773;48.868;10.730;2022-12-18T09:37:18;40.47;;;19.43;;
25982;SDS011;13773;48.868;10.730;2022-12-18T09:39:43;43.73;;;19.13;;
25982;SDS011;13773;48.868;10.730;2022-12-18T09:42:15;40.23;;;19.77;;
25982;SDS011;13773;48.868;10.730;2022-12-18T09:44:52;39.90;;;18.43;;
25982;SDS011;13773;48.868;10.730;2022-12-18T09:47:27;33.47;;;16.67;;
25982;SDS011;13773;48.868;10.730;2022-12-18T09:49:59;34.63;;;15.87;;
25982;SDS011;13773;48.868;10.730;2022-12-18T09:55:17;34.73;;;17.60;;
25982;SDS011;13773;48.868;10.730;2022-12-18T09:57:49;35.67;;;16.03;;
25982;SDS011;13773;48.868;10.730;2022-12-18T10:00:20;37.90;;;17.33;;
25982;SDS011;13773;48.868;10.730;2022-12-18T10:02:48;34.77;;;16.43;;
25982;SDS011;13773;48.868;10.730;2022-12-18T10:05:17;36.20;;;17.27;;
25982;SDS011;13773;48.868;10.730;2022-12-18T10:10:36;33.07;;;14.97;;
25982;SDS011;13773;48.868;10.730;2022-12-18T10:13:38;33.03;;;15.07;;
25982;SDS011;13773;48.868;10.730;2022-12-18T10:16:13;34.40;;;15.83;;
25982;SDS011;13773;48.868;10.730;2022-12-18T10:22:38;39.13;;;17.43;;
25982;SDS011;13773;48.868;10.730;2022-12-18T10:27:30;33.37;;;15.17;;
25982;SDS011;13773;48.868;10.730;2022-12-18T10:29:56;34.53;;;18.13;;
25982;SDS011;13773;48.868;10.730;2022-12-18T10:32:26;32.47;;;15.87;;
25982;SDS011;13773;48.868;10.730;2022-12-18T10:34:54;38.53;;;18.77;;
25982;SDS011;13773;48.868;10.730;2022-12-18T10:37:22;34.23;;;16.77;;
25982;SDS011;13773;48.868;10.730;2022-12-18T10:40:10;33.60;;;17.30;;
25982;SDS011;13773;48.868;10.730;2022-12-18T10:42:43;33.17;;;16.73;;
25982;SDS011;13773;48.868;10.730;2022-12-18T10:45:15;30.13;;;14.90;;
25982;SDS011;13773;48.868;10.730;2022-12-18T10:47:45;36.57;;;17.70;;
25982;SDS011;13773;48.868;10.730;2022-12-18T10:50:18;35.30;;;17.00;;
25982;SDS011;13773;48.868;10.730;2022-12-18T10:52:55;33.20;;;17.40;;
25982;SDS011;13773;48.868;10.730;2022-12-18T10:55:22;37.13;;;17.67;;
25982;SDS011;13773;48.868;10.730;2022-12-18T10:57:48;38.27;;;17.60;;
25982;SDS011;13773;48.868;10.730;2022-12-18T11:00:30;39.23;;;17.87;;
25982;SDS011;13773;48.868;10.730;2022-12-18T11:02:56;33.30;;;17.33;;
25982;SDS011;13773;48.868;10.730;2022-12-18T11:05:24;32.07;;;17.27;;
25982;SDS011;13773;48.868;10.730;2022-12-18T11:07:55;34.17;;;17.93;;
25982;SDS011;13773;48.868;10.730;2022-12-18T11:10:25;30.17;;;17.00;;
25982;SDS011;13773;48.868;10.730;2022-12-18T11:13:07;36.80;;;19.50;;
25982;SDS011;13773;48.868;10.730;2022-12-18T11:15:41;39.67;;;17.60;;
25982;SDS011;13773;48.868;10.730;2022-12-18T11:18:15;37.17;;;18.17;;
25982;SDS011;13773;48.868;10.730;2022-12-18T11:20:51;35.70;;;18.77;;
25982;SDS011;13773;48.868;10.730;2022-12-18T11:23:31;35.50;;;18.57;;
25982;SDS011;13773;48.868;10.730;2022-12-18T11:25:58;38.10;;;19.33;;
25982;SDS011;13773;48.868;10.730;2022-12-18T11:33:37;36.20;;;18.37;;
25982;SDS011;13773;48.868;10.730;2022-12-18T11:36:06;36.60;;;18.27;;
25982;SDS011;13773;48.868;10.730;2022-12-18T11:38:35;33.37;;;18.57;;
25982;SDS011;13773;48.868;10.730;2022-12-18T11:41:11;33.47;;;17.57;;
25982;SDS011;13773;48.868;10.730;2022-12-18T11:46:34;31.30;;;16.93;;
25982;SDS011;13773;48.868;10.730;2022-12-18T11:49:22;33.40;;;17.10;;
25982;SDS011;13773;48.868;10.730;2022-12-18T11:52:03;33.07;;;17.10;;
25982;SDS011;13773;48.868;10.730;2022-12-18T11:54:39;29.33;;;15.83;;
25982;SDS011;13773;48.868;10.730;2022-12-18T11:59:56;29.73;;;15.90;;
25982;SDS011;13773;48.868;10.730;2022-12-18T12:23:44;34.03;;;16.80;;
25982;SDS011;13773;48.868;10.730;2022-12-18T12:26:33;32.83;;;16.83;;
25982;SDS011;13773;48.868;10.730;2022-12-18T12:37:28;34.57;;;17.40;;
25982;SDS011;13773;48.868;10.730;2022-12-18T12:40:02;34.80;;;17.77;;
25982;SDS011;13773;48.868;10.730;2022-12-18T12:42:35;31.07;;;16.20;;
25982;SDS011;13773;48.868;10.730;2022-12-18T12:45:36;33.60;;;17.13;;
25982;SDS011;13773;48.868;10.730;2022-12-18T12:51:09;33.07;;;17.63;;
25982;SDS011;13773;48.868;10.730;2022-12-18T12:53:40;31.77;;;16.20;;
25982;SDS011;13773;48.868;10.730;2022-12-18T12:56:06;31.10;;;16.57;;
25982;SDS011;13773;48.868;10.730;2022-12-18T13:04:03;35.80;;;18.67;;
25982;SDS011;13773;48.868;10.730;2022-12-18T13:09:06;28.97;;;15.87;;
25982;SDS011;13773;48.868;10.730;2022-12-18T13:14:26;31.57;;;17.57;;
25982;SDS011;13773;48.868;10.730;2022-12-18T13:19:47;32.23;;;17.50;;
25982;SDS011;13773;48.868;10.730;2022-12-18T13:22:20;35.60;;;18.37;;
25982;SDS011;13773;48.868;10.730;2022-12-18T13:24:53;35.57;;;19.83;;
25982;SDS011;13773;48.868;10.730;2022-12-18T13:41:32;30.40;;;17.17;;
25982;SDS011;13773;48.868;10.730;2022-12-18T13:46:55;35.77;;;18.87;;
25982;SDS011;13773;48.868;10.730;2022-12-18T13:49:30;31.10;;;16.47;;
25982;SDS011;13773;48.868;10.730;2022-12-18T13:55:01;37.23;;;18.60;;
25982;SDS011;13773;48.868;10.730;2022-12-18T13:57:31;33.73;;;19.23;;
25982;SDS011;13773;48.868;10.730;2022-12-18T13:59:59;35.17;;;19.00;;
25982;SDS011;13773;48.868;10.730;2022-12-18T14:02:44;36.63;;;19.77;;
25982;SDS011;13773;48.868;10.730;2022-12-18T14:05:21;45.67;;;26.57;;
25982;SDS011;13773;48.868;10.730;2022-12-18T14:07:52;36.23;;;17.40;;
25982;SDS011;13773;48.868;10.730;2022-12-18T14:10:19;38.33;;;19.10;;
25982;SDS011;13773;48.868;10.730;2022-12-18T14:12:46;32.00;;;18.47;;
25982;SDS011;13773;48.868;10.730;2022-12-18T14:20:20;31.10;;;17.73;;
25982;SDS011;13773;48.868;10.730;2022-12-18T14:22:48;34.20;;;18.47;;
25982;SDS011;13773;48.868;10.730;2022-12-18T14:25:18;38.77;;;20.20;;
25982;SDS011;13773;48.868;10.730;2022-12-18T14:27:46;33.60;;;18.97;;
25982;SDS011;13773;48.868;10.730;2022-12-18T14:30:38;37.33;;;19.13;;
25982;SDS011;13773;48.868;10.730;2022-12-18T14:38:36;34.77;;;19.13;;
25982;SDS011;13773;48.868;10.730;2022-12-18T14:41:05;31.00;;;14.87;;
25982;SDS011;13773;48.868;10.730;2022-12-18T14:43:35;35.13;;;19.17;;
25982;SDS011;13773;48.868;10.730;2022-12-18T14:46:03;34.37;;;19.03;;
25982;SDS011;13773;48.868;10.730;2022-12-18T14:51:15;37.23;;;20.83;;
25982;SDS011;13773;48.868;10.730;2022-12-18T14:53:44;37.43;;;19.20;;
25982;SDS011;13773;48.868;10.730;2022-12-18T14:56:25;40.00;;;20.00;;
25982;SDS011;13773;48.868;10.730;2022-12-18T15:01:39;38.20;;;21.23;;
25982;SDS011;13773;48.868;10.730;2022-12-18T15:04:25;44.10;;;22.67;;
25982;SDS011;13773;48.868;10.730;2022-12-18T15:12:37;38.83;;;21.87;;
25982;SDS011;13773;48.868;10.730;2022-12-18T15:18:04;45.93;;;23.03;;
25982;SDS011;13773;48.868;10.730;2022-12-18T15:21:10;40.57;;;22.10;;
25982;SDS011;13773;48.868;10.730;2022-12-18T15:23:51;41.43;;;21.67;;
25982;SDS011;13773;48.868;10.730;2022-12-18T15:26:21;38.67;;;21.03;;
25982;SDS011;13773;48.868;10.730;2022-12-18T15:33:41;47.90;;;23.63;;
25982;SDS011;13773;48.868;10.730;2022-12-18T15:36:11;44.97;;;23.17;;
25982;SDS011;13773;48.868;10.730;2022-12-18T15:38:41;42.53;;;21.93;;
25982;SDS011;13773;48.868;10.730;2022-12-18T15:41:13;45.70;;;23.73;;
25982;SDS011;13773;48.868;10.730;2022-12-18T15:43:39;43.30;;;22.83;;
25982;SDS011;13773;48.868;10.730;2022-12-18T15:46:06;45.53;;;24.23;;
25982;SDS011;13773;48.868;10.730;2022-12-18T15:48:40;46.63;;;22.63;;
25982;SDS011;13773;48.868;10.730;2022-12-18T15:51:28;50.67;;;26.23;;
25982;SDS011;13773;48.868;10.730;2022-12-18T15:53:57;45.80;;;23.33;;
25982;SDS011;13773;48.868;10.730;2022-12-18T15:56:25;43.53;;;23.03;;
25982;SDS011;13773;48.868;10.730;2022-12-18T15:59:11;45.00;;;22.60;;
25982;SDS011;13773;48.868;10.730;2022-12-18T16:01:41;37.87;;;20.63;;
25982;SDS011;13773;48.868;10.730;2022-12-18T16:04:14;44.17;;;22.13;;
25982;SDS011;13773;48.868;10.730;2022-12-18T16:06:42;49.07;;;24.07;;
25982;SDS011;13773;48.868;10.730;2022-12-18T16:09:08;49.67;;;24.87;;
25982;SDS011;13773;48.868;10.730;2022-12-18T16:11:34;46.53;;;23.00;;
25982;SDS011;13773;48.868;10.730;2022-12-18T16:16:43;40.03;;;21.57;;
25982;SDS011;13773;48.868;10.730;2022-12-18T16:19:10;39.77;;;21.17;;
25982;SDS011;13773;48.868;10.730;2022-12-18T16:21:35;43.67;;;21.40;;
25982;SDS011;13773;48.868;10.730;2022-12-18T16:24:01;47.13;;;22.97;;
25982;SDS011;13773;48.868;10.730;2022-12-18T16:26:27;50.10;;;23.17;;
25982;SDS011;13773;48.868;10.730;2022-12-18T16:28:52;45.00;;;21.63;;
25982;SDS011;13773;48.868;10.730;2022-12-18T16:31:18;47.03;;;24.20;;
25982;SDS011;13773;48.868;10.730;2022-12-18T16:33:44;49.70;;;24.40;;
25982;SDS011;13773;48.868;10.730;2022-12-18T16:36:10;47.00;;;22.63;;
25982;SDS011;13773;48.868;10.730;2022-12-18T16:38:35;45.80;;;23.93;;
25982;SDS011;13773;48.868;10.730;2022-12-18T16:41:01;50.17;;;23.37;;
25982;SDS011;13773;48.868;10.730;2022-12-18T16:43:48;48.80;;;24.67;;
25982;SDS011;13773;48.868;10.730;2022-12-18T16:46:14;46.37;;;22.47;;
25982;SDS011;13773;48.868;10.730;2022-12-18T16:48:39;46.07;;;24.63;;
25982;SDS011;13773;48.868;10.730;2022-12-18T16:51:05;49.57;;;24.63;;
25982;SDS011;13773;48.868;10.730;2022-12-18T16:53:31;52.43;;;25.10;;
25982;SDS011;13773;48.868;10.730;2022-12-18T16:55:58;50.20;;;24.80;;